sensor_id;sensor_type;location;lat;lon;timestamp;temperature;humidity
18611;DHT22;9435;52.122;5.502;2023-01-15T00:01:20;7.30;99.90
18611;DHT22;9435;52.122;5.502;2023-01-15T00:03:50;7.30;99.90
18611;DHT22;9435;52.122;5.502;2023-01-15T00:06:18;7.30;99.90
18611;DHT22;9435;52.122;5.502;2023-01-15T00:08:45;7.30;99.90
18611;DHT22;9435;52.122;5.502;2023-01-15T00:11:12;7.30;99.90
18611;DHT22;9435;52.122;5.502;2023-01-15T00:13:40;7.30;99.90
18611;DHT22;9435;52.122;5.502;2023-01-15T00:16:09;7.20;99.90
18611;DHT22;9435;52.122;5.502;2023-01-15T00:18:37;7.30;99.90
18611;DHT22;9435;52.122;5.502;2023-01-15T00:21:07;7.20;99.90
18611;DHT22;9435;52.122;5.502;2023-01-15T00:23:34;7.30;99.90
18611;DHT22;9435;52.122;5.502;2023-01-15T00:26:20;7.20;99.90
18611;DHT22;9435;52.122;5.502;2023-01-15T00:29:05;7.20;99.90
18611;DHT22;9435;52.122;5.502;2023-01-15T00:31:34;7.20;99.90
18611;DHT22;9435;52.122;5.502;2023-01-15T00:34:01;7.20;99.90
18611;DHT22;9435;52.122;5.502;2023-01-15T00:36:29;7.20;99.90
18611;DHT22;9435;52.122;5.502;2023-01-15T00:38:58;7.20;99.90
18611;DHT22;9435;52.122;5.502;2023-01-15T00:41:25;7.10;99.90
18611;DHT22;9435;52.122;5.502;2023-01-15T00:43:52;7.20;99.90
18611;DHT22;9435;52.122;5.502;2023-01-15T00:46:20;7.10;99.90
18611;DHT22;9435;52.122;5.502;2023-01-15T00:48:47;7.20;99.90
18611;DHT22;9435;52.122;5.502;2023-01-15T00:51:14;7.20;99.90
18611;DHT22;9435;52.122;5.502;2023-01-15T00:53:42;7.20;99.90
18611;DHT22;9435;52.122;5.502;2023-01-15T00:56:09;7.20;99.90
18611;DHT22;9435;52.122;5.502;2023-01-15T00:58:36;7.20;99.90
18611;DHT22;9435;52.122;5.502;2023-01-15T01:01:04;7.20;99.90
18611;DHT22;9435;52.122;5.502;2023-01-15T01:03:31;7.20;99.90
18611;DHT22;9435;52.122;5.502;2023-01-15T01:06:00;7.20;99.90
18611;DHT22;9435;52.122;5.502;2023-01-15T01:08:27;7.20;99.90
18611;DHT22;9435;52.122;5.502;2023-01-15T01:11:03;7.20;99.90
18611;DHT22;9435;52.122;5.502;2023-01-15T01:13:32;7.20;99.90
18611;DHT22;9435;52.122;5.502;2023-01-15T01:16:00;7.20;99.90
18611;DHT22;9435;52.122;5.502;2023-01-15T01:18:27;7.10;99.90
18611;DHT22;9435;52.122;5.502;2023-01-15T01:20:54;7.20;99.90
18611;DHT22;9435;52.122;5.502;2023-01-15T01:23:23;7.20;99.90
18611;DHT22;9435;52.122;5.502;2023-01-15T01:25:50;7.20;99.90
18611;DHT22;9435;52.122;5.502;2023-01-15T01:28:18;7.20;99.90
18611;DHT22;9435;52.122;5.502;2023-01-15T01:30:45;7.10;99.90
18611;DHT22;9435;52.122;5.502;2023-01-15T01:33:12;7.10;99.90
18611;DHT22;9435;52.122;5.502;2023-01-15T01:35:46;7.20;99.90
18611;DHT22;9435;52.122;5.502;2023-01-15T01:38:14;7.10;99.90
18611;DHT22;9435;52.122;5.502;2023-01-15T01:40:41;7.20;99.90
18611;DHT22;9435;52.122;5.502;2023-01-15T01:43:19;7.20;99.90
18611;DHT22;9435;52.122;5.502;2023-01-15T01:45:47;7.10;99.90
18611;DHT22;9435;52.122;5.502;2023-01-15T01:48:15;7.10;99.90
18611;DHT22;9435;52.122;5.502;2023-01-15T01:50:44;7.10;99.90
18611;DHT22;9435;52.122;5.502;2023-01-15T01:53:14;7.10;99.90
18611;DHT22;9435;52.122;5.502;2023-01-15T01:55:43;7.10;99.90
18611;DHT22;9435;52.122;5.502;2023-01-15T01:58:11;7.10;99.90
18611;DHT22;9435;52.122;5.502;2023-01-15T02:00:43;7.10;99.90
18611;DHT22;9435;52.122;5.502;2023-01-15T02:03:11;7.00;99.90
18611;DHT22;9435;52.122;5.502;2023-01-15T02:05:49;7.00;99.90
18611;DHT22;9435;52.122;5.502;2023-01-15T02:08:18;7.00;99.90
18611;DHT22;9435;52.122;5.502;2023-01-15T02:10:49;7.00;99.90
18611;DHT22;9435;52.122;5.502;2023-01-15T02:13:22;7.00;99.90
18611;DHT22;9435;52.122;5.502;2023-01-15T02:15:59;7.00;99.90
18611;DHT22;9435;52.122;5.502;2023-01-15T02:18:30;7.00;99.90
18611;DHT22;9435;52.122;5.502;2023-01-15T02:21:05;7.00;99.90
18611;DHT22;9435;52.122;5.502;2023-01-15T02:23:59;7.00;99.90
18611;DHT22;9435;52.122;5.502;2023-01-15T02:29:47;7.00;99.90
18611;DHT22;9435;52.122;5.502;2023-01-15T02:32:19;6.90;99.90
18611;DHT22;9435;52.122;5.502;2023-01-15T02:34:52;6.90;99.90
18611;DHT22;9435;52.122;5.502;2023-01-15T02:37:25;7.00;99.90
18611;DHT22;9435;52.122;5.502;2023-01-15T02:39:54;7.00;99.90
18611;DHT22;9435;52.122;5.502;2023-01-15T02:42:22;6.90;99.90
18611;DHT22;9435;52.122;5.502;2023-01-15T02:44:53;6.90;99.90
18611;DHT22;9435;52.122;5.502;2023-01-15T02:47:24;6.90;99.90
18611;DHT22;9435;52.122;5.502;2023-01-15T02:49:54;6.90;99.90
18611;DHT22;9435;52.122;5.502;2023-01-15T02:52:26;6.90;99.90
18611;DHT22;9435;52.122;5.502;2023-01-15T02:54:58;6.80;99.90
18611;DHT22;9435;52.122;5.502;2023-01-15T02:57:29;6.80;99.90
18611;DHT22;9435;52.122;5.502;2023-01-15T03:00:03;6.80;99.90
18611;DHT22;9435;52.122;5.502;2023-01-15T03:02:35;6.80;99.90
18611;DHT22;9435;52.122;5.502;2023-01-15T03:05:08;6.80;99.90
18611;DHT22;9435;52.122;5.502;2023-01-15T03:07:42;6.90;99.90
18611;DHT22;9435;52.122;5.502;2023-01-15T03:10:10;6.80;99.90
18611;DHT22;9435;52.122;5.502;2023-01-15T03:12:44;6.90;99.90
18611;DHT22;9435;52.122;5.502;2023-01-15T03:15:40;6.80;99.90
18611;DHT22;9435;52.122;5.502;2023-01-15T03:18:28;6.80;99.90
18611;DHT22;9435;52.122;5.502;2023-01-15T03:21:01;6.80;99.90
18611;DHT22;9435;52.122;5.502;2023-01-15T03:23:36;6.80;99.90
18611;DHT22;9435;52.122;5.502;2023-01-15T03:26:05;6.80;99.90
18611;DHT22;9435;52.122;5.502;2023-01-15T03:28:34;6.80;99.90
18611;DHT22;9435;52.122;5.502;2023-01-15T03:31:04;6.80;99.90
18611;DHT22;9435;52.122;5.502;2023-01-15T03:33:31;6.80;99.90
18611;DHT22;9435;52.122;5.502;2023-01-15T03:35:58;6.80;99.90
18611;DHT22;9435;52.122;5.502;2023-01-15T03:38:28;6.80;99.90
18611;DHT22;9435;52.122;5.502;2023-01-15T03:41:01;6.80;99.90
18611;DHT22;9435;52.122;5.502;2023-01-15T03:43:35;6.80;99.90
18611;DHT22;9435;52.122;5.502;2023-01-15T03:46:17;6.80;99.90
18611;DHT22;9435;52.122;5.502;2023-01-15T03:48:51;6.70;99.90
18611;DHT22;9435;52.122;5.502;2023-01-15T03:51:23;6.70;99.90
18611;DHT22;9435;52.122;5.502;2023-01-15T03:53:53;6.60;99.90
18611;DHT22;9435;52.122;5.502;2023-01-15T03:56:27;6.60;99.90
18611;DHT22;9435;52.122;5.502;2023-01-15T03:58:58;6.60;99.90
18611;DHT22;9435;52.122;5.502;2023-01-15T04:01:32;6.50;99.90
18611;DHT22;9435;52.122;5.502;2023-01-15T04:04:01;6.50;99.90
18611;DHT22;9435;52.122;5.502;2023-01-15T04:06:31;6.60;99.90
18611;DHT22;9435;52.122;5.502;2023-01-15T04:09:02;6.60;99.90
18611;DHT22;9435;52.122;5.502;2023-01-15T04:11:36;6.60;99.90
18611;DHT22;9435;52.122;5.502;2023-01-15T04:14:04;6.60;99.90
18611;DHT22;9435;52.122;5.502;2023-01-15T04:16:34;6.60;99.90
18611;DHT22;9435;52.122;5.502;2023-01-15T04:19:03;6.60;99.90
18611;DHT22;9435;52.122;5.502;2023-01-15T04:21:30;6.60;99.90
18611;DHT22;9435;52.122;5.502;2023-01-15T04:23:57;6.50;99.90
18611;DHT22;9435;52.122;5.502;2023-01-15T04:26:24;6.60;99.90
18611;DHT22;9435;52.122;5.502;2023-01-15T04:28:52;6.50;99.90
18611;DHT22;9435;52.122;5.502;2023-01-15T04:31:19;6.50;99.90
18611;DHT22;9435;52.122;5.502;2023-01-15T04:33:47;6.50;99.90
18611;DHT22;9435;52.122;5.502;2023-01-15T04:36:14;6.50;99.90
18611;DHT22;9435;52.122;5.502;2023-01-15T04:38:41;6.50;99.90
18611;DHT22;9435;52.122;5.502;2023-01-15T04:41:09;6.50;99.90
18611;DHT22;9435;52.122;5.502;2023-01-15T04:43:54;6.50;99.90
18611;DHT22;9435;52.122;5.502;2023-01-15T04:46:34;6.50;99.90
18611;DHT22;9435;52.122;5.502;2023-01-15T04:49:03;6.50;99.90
18611;DHT22;9435;52.122;5.502;2023-01-15T04:51:30;6.50;99.90
18611;DHT22;9435;52.122;5.502;2023-01-15T04:53:57;6.40;99.90
18611;DHT22;9435;52.122;5.502;2023-01-15T04:56:26;6.50;99.90
18611;DHT22;9435;52.122;5.502;2023-01-15T04:58:53;6.50;99.90
18611;DHT22;9435;52.122;5.502;2023-01-15T05:01:20;6.50;99.90
18611;DHT22;9435;52.122;5.502;2023-01-15T05:03:47;6.50;99.90
18611;DHT22;9435;52.122;5.502;2023-01-15T05:06:16;6.40;99.90
18611;DHT22;9435;52.122;5.502;2023-01-15T05:08:43;6.40;99.90
18611;DHT22;9435;52.122;5.502;2023-01-15T05:11:10;6.40;99.90
18611;DHT22;9435;52.122;5.502;2023-01-15T05:13:38;6.40;99.90
18611;DHT22;9435;52.122;5.502;2023-01-15T05:16:10;6.40;99.90
18611;DHT22;9435;52.122;5.502;2023-01-15T05:18:38;6.40;99.90
18611;DHT22;9435;52.122;5.502;2023-01-15T05:21:05;6.40;99.90
18611;DHT22;9435;52.122;5.502;2023-01-15T05:23:34;6.40;99.90
18611;DHT22;9435;52.122;5.502;2023-01-15T05:26:02;6.40;99.90
18611;DHT22;9435;52.122;5.502;2023-01-15T05:28:31;6.40;99.90
18611;DHT22;9435;52.122;5.502;2023-01-15T05:30:58;6.40;99.90
18611;DHT22;9435;52.122;5.502;2023-01-15T05:33:25;6.40;99.90
18611;DHT22;9435;52.122;5.502;2023-01-15T05:35:52;6.40;99.90
18611;DHT22;9435;52.122;5.502;2023-01-15T05:38:19;6.40;99.90
18611;DHT22;9435;52.122;5.502;2023-01-15T05:40:47;6.50;99.90
18611;DHT22;9435;52.122;5.502;2023-01-15T05:43:14;6.40;99.90
18611;DHT22;9435;52.122;5.502;2023-01-15T05:45:41;6.40;99.90
18611;DHT22;9435;52.122;5.502;2023-01-15T05:48:08;6.40;99.90
18611;DHT22;9435;52.122;5.502;2023-01-15T05:50:35;6.30;99.90
18611;DHT22;9435;52.122;5.502;2023-01-15T05:53:02;6.30;99.90
18611;DHT22;9435;52.122;5.502;2023-01-15T05:55:29;6.30;99.90
18611;DHT22;9435;52.122;5.502;2023-01-15T05:57:58;6.30;99.90
18611;DHT22;9435;52.122;5.502;2023-01-15T06:00:25;6.30;99.90
18611;DHT22;9435;52.122;5.502;2023-01-15T06:02:52;6.30;99.90
18611;DHT22;9435;52.122;5.502;2023-01-15T06:05:19;6.20;99.90
18611;DHT22;9435;52.122;5.502;2023-01-15T06:07:49;6.20;99.90
18611;DHT22;9435;52.122;5.502;2023-01-15T06:10:17;6.30;99.90
18611;DHT22;9435;52.122;5.502;2023-01-15T06:12:44;6.30;99.90
18611;DHT22;9435;52.122;5.502;2023-01-15T06:15:13;6.20;99.90
18611;DHT22;9435;52.122;5.502;2023-01-15T06:17:40;6.20;99.90
18611;DHT22;9435;52.122;5.502;2023-01-15T06:20:08;6.20;99.90
18611;DHT22;9435;52.122;5.502;2023-01-15T06:22:36;6.20;99.90
18611;DHT22;9435;52.122;5.502;2023-01-15T06:25:05;6.10;99.90
18611;DHT22;9435;52.122;5.502;2023-01-15T06:27:32;6.00;99.90
18611;DHT22;9435;52.122;5.502;2023-01-15T06:29:59;5.80;99.90
18611;DHT22;9435;52.122;5.502;2023-01-15T06:32:27;5.70;99.90
18611;DHT22;9435;52.122;5.502;2023-01-15T06:34:54;5.60;99.90
18611;DHT22;9435;52.122;5.502;2023-01-15T06:37:21;5.50;99.90
18611;DHT22;9435;52.122;5.502;2023-01-15T06:39:48;5.50;99.90
18611;DHT22;9435;52.122;5.502;2023-01-15T06:42:15;5.40;99.90
18611;DHT22;9435;52.122;5.502;2023-01-15T06:45:00;5.30;99.90
18611;DHT22;9435;52.122;5.502;2023-01-15T06:47:46;5.30;99.90
18611;DHT22;9435;52.122;5.502;2023-01-15T06:50:13;5.40;99.90
18611;DHT22;9435;52.122;5.502;2023-01-15T06:52:42;5.40;99.90
18611;DHT22;9435;52.122;5.502;2023-01-15T06:55:09;5.30;99.90
18611;DHT22;9435;52.122;5.502;2023-01-15T06:57:37;5.30;99.90
18611;DHT22;9435;52.122;5.502;2023-01-15T07:00:05;5.20;99.90
18611;DHT22;9435;52.122;5.502;2023-01-15T07:02:33;5.20;99.90
18611;DHT22;9435;52.122;5.502;2023-01-15T07:05:04;5.10;99.90
18611;DHT22;9435;52.122;5.502;2023-01-15T07:07:31;5.10;99.90
18611;DHT22;9435;52.122;5.502;2023-01-15T07:09:59;5.10;99.90
18611;DHT22;9435;52.122;5.502;2023-01-15T07:12:26;5.10;99.90
18611;DHT22;9435;52.122;5.502;2023-01-15T07:14:53;5.10;99.90
18611;DHT22;9435;52.122;5.502;2023-01-15T07:17:20;5.20;99.90
18611;DHT22;9435;52.122;5.502;2023-01-15T07:19:47;5.30;99.90
18611;DHT22;9435;52.122;5.502;2023-01-15T07:22:15;5.30;99.90
18611;DHT22;9435;52.122;5.502;2023-01-15T07:24:42;5.20;99.90
18611;DHT22;9435;52.122;5.502;2023-01-15T07:27:09;5.20;99.90
18611;DHT22;9435;52.122;5.502;2023-01-15T07:29:36;5.30;99.90
18611;DHT22;9435;52.122;5.502;2023-01-15T07:32:04;5.30;99.90
18611;DHT22;9435;52.122;5.502;2023-01-15T07:34:32;5.20;99.90
18611;DHT22;9435;52.122;5.502;2023-01-15T07:37:01;5.20;99.90
18611;DHT22;9435;52.122;5.502;2023-01-15T07:39:30;5.20;99.90
18611;DHT22;9435;52.122;5.502;2023-01-15T07:41:57;5.30;99.90
18611;DHT22;9435;52.122;5.502;2023-01-15T07:44:41;5.40;99.90
18611;DHT22;9435;52.122;5.502;2023-01-15T07:47:24;5.40;99.90
18611;DHT22;9435;52.122;5.502;2023-01-15T07:50:10;5.40;99.90
18611;DHT22;9435;52.122;5.502;2023-01-15T07:52:38;5.40;99.90
18611;DHT22;9435;52.122;5.502;2023-01-15T07:55:07;5.50;99.90
18611;DHT22;9435;52.122;5.502;2023-01-15T07:57:35;5.50;99.90
18611;DHT22;9435;52.122;5.502;2023-01-15T08:00:03;5.50;99.90
18611;DHT22;9435;52.122;5.502;2023-01-15T08:02:31;5.50;99.90
18611;DHT22;9435;52.122;5.502;2023-01-15T08:04:58;5.50;99.90
18611;DHT22;9435;52.122;5.502;2023-01-15T08:07:25;5.50;99.90
18611;DHT22;9435;52.122;5.502;2023-01-15T08:09:52;5.40;99.90
18611;DHT22;9435;52.122;5.502;2023-01-15T08:12:20;5.40;99.90
18611;DHT22;9435;52.122;5.502;2023-01-15T08:15:07;5.40;99.90
18611;DHT22;9435;52.122;5.502;2023-01-15T08:17:42;5.40;99.90
18611;DHT22;9435;52.122;5.502;2023-01-15T08:20:11;5.40;99.90
18611;DHT22;9435;52.122;5.502;2023-01-15T08:22:39;5.40;99.90
18611;DHT22;9435;52.122;5.502;2023-01-15T08:25:08;5.40;99.90
18611;DHT22;9435;52.122;5.502;2023-01-15T08:27:37;5.40;99.90
18611;DHT22;9435;52.122;5.502;2023-01-15T08:30:08;5.40;99.90
18611;DHT22;9435;52.122;5.502;2023-01-15T08:32:35;5.40;99.90
18611;DHT22;9435;52.122;5.502;2023-01-15T08:35:02;5.40;99.90
18611;DHT22;9435;52.122;5.502;2023-01-15T08:37:29;5.50;99.90
18611;DHT22;9435;52.122;5.502;2023-01-15T08:39:56;5.50;99.90
18611;DHT22;9435;52.122;5.502;2023-01-15T08:42:23;5.50;99.90
18611;DHT22;9435;52.122;5.502;2023-01-15T08:44:52;5.50;99.90
18611;DHT22;9435;52.122;5.502;2023-01-15T08:47:19;5.50;99.90
18611;DHT22;9435;52.122;5.502;2023-01-15T08:49:46;5.60;99.90
18611;DHT22;9435;52.122;5.502;2023-01-15T08:52:14;5.60;99.90
18611;DHT22;9435;52.122;5.502;2023-01-15T08:54:41;5.60;99.90
18611;DHT22;9435;52.122;5.502;2023-01-15T08:57:08;5.70;99.90
18611;DHT22;9435;52.122;5.502;2023-01-15T08:59:37;5.70;99.90
18611;DHT22;9435;52.122;5.502;2023-01-15T09:02:05;5.70;99.90
18611;DHT22;9435;52.122;5.502;2023-01-15T09:04:32;5.80;99.90
18611;DHT22;9435;52.122;5.502;2023-01-15T09:06:59;5.70;99.90
18611;DHT22;9435;52.122;5.502;2023-01-15T09:09:27;5.80;99.90
18611;DHT22;9435;52.122;5.502;2023-01-15T09:11:54;5.90;99.90
18611;DHT22;9435;52.122;5.502;2023-01-15T09:14:21;5.90;99.90
18611;DHT22;9435;52.122;5.502;2023-01-15T09:16:48;5.90;99.90
18611;DHT22;9435;52.122;5.502;2023-01-15T09:19:17;5.90;99.90
18611;DHT22;9435;52.122;5.502;2023-01-15T09:21:44;5.90;99.90
18611;DHT22;9435;52.122;5.502;2023-01-15T09:24:11;5.90;99.90
18611;DHT22;9435;52.122;5.502;2023-01-15T09:26:39;5.90;99.90
18611;DHT22;9435;52.122;5.502;2023-01-15T09:29:06;5.90;99.90
18611;DHT22;9435;52.122;5.502;2023-01-15T09:31:34;5.90;99.90
18611;DHT22;9435;52.122;5.502;2023-01-15T09:34:01;5.90;99.90
18611;DHT22;9435;52.122;5.502;2023-01-15T09:36:33;6.00;99.90
18611;DHT22;9435;52.122;5.502;2023-01-15T09:39:03;6.00;99.90
18611;DHT22;9435;52.122;5.502;2023-01-15T09:41:54;6.10;99.90
18611;DHT22;9435;52.122;5.502;2023-01-15T09:44:42;6.20;99.90
18611;DHT22;9435;52.122;5.502;2023-01-15T09:47:15;6.40;99.90
18611;DHT22;9435;52.122;5.502;2023-01-15T09:49:56;6.40;99.90
18611;DHT22;9435;52.122;5.502;2023-01-15T09:52:37;6.40;99.90
18611;DHT22;9435;52.122;5.502;2023-01-15T09:55:12;6.40;99.90
18611;DHT22;9435;52.122;5.502;2023-01-15T09:57:39;6.40;99.90
18611;DHT22;9435;52.122;5.502;2023-01-15T10:00:15;6.30;99.90
18611;DHT22;9435;52.122;5.502;2023-01-15T10:02:46;6.30;99.90
18611;DHT22;9435;52.122;5.502;2023-01-15T10:05:18;6.30;99.90
18611;DHT22;9435;52.122;5.502;2023-01-15T10:07:53;6.30;99.90
18611;DHT22;9435;52.122;5.502;2023-01-15T10:10:26;6.30;99.90
18611;DHT22;9435;52.122;5.502;2023-01-15T10:13:04;6.40;99.90
18611;DHT22;9435;52.122;5.502;2023-01-15T10:15:36;6.40;99.90
18611;DHT22;9435;52.122;5.502;2023-01-15T10:18:06;6.60;99.90
18611;DHT22;9435;52.122;5.502;2023-01-15T10:20:57;6.70;99.90
18611;DHT22;9435;52.122;5.502;2023-01-15T10:23:36;6.90;99.90
18611;DHT22;9435;52.122;5.502;2023-01-15T10:26:13;7.00;99.90
18611;DHT22;9435;52.122;5.502;2023-01-15T10:29:00;7.10;99.90
18611;DHT22;9435;52.122;5.502;2023-01-15T10:31:48;7.20;99.90
18611;DHT22;9435;52.122;5.502;2023-01-15T10:34:37;7.40;99.90
18611;DHT22;9435;52.122;5.502;2023-01-15T10:37:11;7.50;99.90
18611;DHT22;9435;52.122;5.502;2023-01-15T10:39:48;7.50;99.90
18611;DHT22;9435;52.122;5.502;2023-01-15T10:42:29;7.40;99.90
18611;DHT22;9435;52.122;5.502;2023-01-15T10:45:01;7.30;99.90
18611;DHT22;9435;52.122;5.502;2023-01-15T10:47:34;7.30;99.90
18611;DHT22;9435;52.122;5.502;2023-01-15T10:50:08;7.40;99.90
18611;DHT22;9435;52.122;5.502;2023-01-15T10:52:39;7.40;99.90
18611;DHT22;9435;52.122;5.502;2023-01-15T10:55:17;7.50;99.90
18611;DHT22;9435;52.122;5.502;2023-01-15T10:57:50;7.40;99.90
18611;DHT22;9435;52.122;5.502;2023-01-15T11:00:19;7.40;99.90
18611;DHT22;9435;52.122;5.502;2023-01-15T11:02:52;7.40;99.90
18611;DHT22;9435;52.122;5.502;2023-01-15T11:05:22;7.40;99.90
18611;DHT22;9435;52.122;5.502;2023-01-15T11:07:51;7.40;99.90
18611;DHT22;9435;52.122;5.502;2023-01-15T11:10:21;7.50;99.90
18611;DHT22;9435;52.122;5.502;2023-01-15T11:12:54;7.60;99.90
18611;DHT22;9435;52.122;5.502;2023-01-15T11:15:39;7.70;99.90
18611;DHT22;9435;52.122;5.502;2023-01-15T11:18:32;7.60;99.90
18611;DHT22;9435;52.122;5.502;2023-01-15T11:21:19;7.50;99.90
18611;DHT22;9435;52.122;5.502;2023-01-15T11:23:47;7.40;99.90
18611;DHT22;9435;52.122;5.502;2023-01-15T11:26:22;7.40;99.90
18611;DHT22;9435;52.122;5.502;2023-01-15T11:28:50;7.40;99.90
18611;DHT22;9435;52.122;5.502;2023-01-15T11:31:18;7.40;99.90
18611;DHT22;9435;52.122;5.502;2023-01-15T11:33:57;7.40;99.90
18611;DHT22;9435;52.122;5.502;2023-01-15T11:36:26;7.40;99.90
18611;DHT22;9435;52.122;5.502;2023-01-15T11:38:53;7.40;99.90
18611;DHT22;9435;52.122;5.502;2023-01-15T11:41:27;7.40;99.90
18611;DHT22;9435;52.122;5.502;2023-01-15T11:44:16;7.30;99.90
18611;DHT22;9435;52.122;5.502;2023-01-15T11:47:01;7.20;99.90
18611;DHT22;9435;52.122;5.502;2023-01-15T11:49:50;7.20;99.90
18611;DHT22;9435;52.122;5.502;2023-01-15T11:52:36;7.20;99.90
18611;DHT22;9435;52.122;5.502;2023-01-15T11:55:10;7.20;99.90
18611;DHT22;9435;52.122;5.502;2023-01-15T11:57:39;7.20;99.90
18611;DHT22;9435;52.122;5.502;2023-01-15T12:00:19;7.20;99.90
18611;DHT22;9435;52.122;5.502;2023-01-15T12:02:49;7.10;99.90
18611;DHT22;9435;52.122;5.502;2023-01-15T12:05:18;7.20;99.90
18611;DHT22;9435;52.122;5.502;2023-01-15T12:07:47;7.20;99.90
18611;DHT22;9435;52.122;5.502;2023-01-15T12:10:18;7.30;99.90
18611;DHT22;9435;52.122;5.502;2023-01-15T12:13:16;7.30;99.90
18611;DHT22;9435;52.122;5.502;2023-01-15T12:15:49;7.30;99.90
18611;DHT22;9435;52.122;5.502;2023-01-15T12:18:46;7.30;99.90
18611;DHT22;9435;52.122;5.502;2023-01-15T12:21:28;7.20;99.90
18611;DHT22;9435;52.122;5.502;2023-01-15T12:27:06;7.10;99.90
18611;DHT22;9435;52.122;5.502;2023-01-15T12:29:44;7.00;99.90
18611;DHT22;9435;52.122;5.502;2023-01-15T12:32:14;6.90;99.90
18611;DHT22;9435;52.122;5.502;2023-01-15T12:34:48;6.80;99.90
18611;DHT22;9435;52.122;5.502;2023-01-15T12:37:19;6.70;99.90
18611;DHT22;9435;52.122;5.502;2023-01-15T12:39:52;6.60;99.90
18611;DHT22;9435;52.122;5.502;2023-01-15T12:42:23;6.60;99.90
18611;DHT22;9435;52.122;5.502;2023-01-15T12:45:21;6.60;99.90
18611;DHT22;9435;52.122;5.502;2023-01-15T12:47:54;6.50;99.90
18611;DHT22;9435;52.122;5.502;2023-01-15T12:50:31;6.50;99.90
18611;DHT22;9435;52.122;5.502;2023-01-15T12:53:07;6.50;99.90
18611;DHT22;9435;52.122;5.502;2023-01-15T12:55:39;6.50;99.90
18611;DHT22;9435;52.122;5.502;2023-01-15T12:58:15;6.40;99.90
18611;DHT22;9435;52.122;5.502;2023-01-15T13:00:48;6.40;99.90
18611;DHT22;9435;52.122;5.502;2023-01-15T13:03:21;6.40;99.90
18611;DHT22;9435;52.122;5.502;2023-01-15T13:05:52;6.30;99.90
18611;DHT22;9435;52.122;5.502;2023-01-15T13:08:24;6.40;99.90
18611;DHT22;9435;52.122;5.502;2023-01-15T13:10:52;6.40;99.90
18611;DHT22;9435;52.122;5.502;2023-01-15T13:13:21;6.40;99.90
18611;DHT22;9435;52.122;5.502;2023-01-15T13:16:02;6.40;99.90
18611;DHT22;9435;52.122;5.502;2023-01-15T13:18:39;6.40;99.90
18611;DHT22;9435;52.122;5.502;2023-01-15T13:21:12;6.50;99.90
18611;DHT22;9435;52.122;5.502;2023-01-15T13:24:02;6.50;99.90
18611;DHT22;9435;52.122;5.502;2023-01-15T13:27:02;6.60;99.90
18611;DHT22;9435;52.122;5.502;2023-01-15T13:29:56;6.60;99.90
18611;DHT22;9435;52.122;5.502;2023-01-15T13:32:34;6.60;99.90
18611;DHT22;9435;52.122;5.502;2023-01-15T13:35:15;6.70;99.90
18611;DHT22;9435;52.122;5.502;2023-01-15T13:37:49;6.70;99.90
18611;DHT22;9435;52.122;5.502;2023-01-15T13:40:28;6.70;99.90
18611;DHT22;9435;52.122;5.502;2023-01-15T13:43:05;6.70;99.90
18611;DHT22;9435;52.122;5.502;2023-01-15T13:45:36;6.70;99.90
18611;DHT22;9435;52.122;5.502;2023-01-15T13:48:09;6.70;99.90
18611;DHT22;9435;52.122;5.502;2023-01-15T13:50:41;6.70;99.90
18611;DHT22;9435;52.122;5.502;2023-01-15T13:53:20;6.70;99.90
18611;DHT22;9435;52.122;5.502;2023-01-15T13:55:51;6.70;99.90
18611;DHT22;9435;52.122;5.502;2023-01-15T13:58:23;6.80;99.90
18611;DHT22;9435;52.122;5.502;2023-01-15T14:01:01;6.70;99.90
18611;DHT22;9435;52.122;5.502;2023-01-15T14:03:31;6.80;99.90
18611;DHT22;9435;52.122;5.502;2023-01-15T14:06:00;6.70;99.90
18611;DHT22;9435;52.122;5.502;2023-01-15T14:08:35;6.70;99.90
18611;DHT22;9435;52.122;5.502;2023-01-15T14:11:03;6.70;99.90
18611;DHT22;9435;52.122;5.502;2023-01-15T14:16:43;6.70;99.90
18611;DHT22;9435;52.122;5.502;2023-01-15T14:19:35;6.70;99.90
18611;DHT22;9435;52.122;5.502;2023-01-15T14:22:32;6.70;99.90
18611;DHT22;9435;52.122;5.502;2023-01-15T14:25:22;6.80;99.90
18611;DHT22;9435;52.122;5.502;2023-01-15T14:28:16;6.70;99.90
18611;DHT22;9435;52.122;5.502;2023-01-15T14:31:11;6.70;99.90
18611;DHT22;9435;52.122;5.502;2023-01-15T14:36:38;6.70;99.90
18611;DHT22;9435;52.122;5.502;2023-01-15T14:39:17;6.60;99.90
18611;DHT22;9435;52.122;5.502;2023-01-15T14:41:55;6.60;99.90
18611;DHT22;9435;52.122;5.502;2023-01-15T14:44:43;6.60;99.90
18611;DHT22;9435;52.122;5.502;2023-01-15T14:47:20;6.50;99.90
18611;DHT22;9435;52.122;5.502;2023-01-15T14:49:59;6.40;99.90
18611;DHT22;9435;52.122;5.502;2023-01-15T14:52:28;6.40;99.90
18611;DHT22;9435;52.122;5.502;2023-01-15T14:54:57;6.50;99.90
18611;DHT22;9435;52.122;5.502;2023-01-15T14:57:26;6.50;99.90
18611;DHT22;9435;52.122;5.502;2023-01-15T14:59:56;6.50;99.90
18611;DHT22;9435;52.122;5.502;2023-01-15T15:02:36;6.60;99.90
18611;DHT22;9435;52.122;5.502;2023-01-15T15:05:05;6.60;99.90
18611;DHT22;9435;52.122;5.502;2023-01-15T15:07:42;6.60;99.90
18611;DHT22;9435;52.122;5.502;2023-01-15T15:10:18;6.60;99.90
18611;DHT22;9435;52.122;5.502;2023-01-15T15:12:50;6.60;99.90
18611;DHT22;9435;52.122;5.502;2023-01-15T15:15:22;6.60;99.90
18611;DHT22;9435;52.122;5.502;2023-01-15T15:17:57;6.60;99.90
18611;DHT22;9435;52.122;5.502;2023-01-15T15:20:32;6.60;99.90
18611;DHT22;9435;52.122;5.502;2023-01-15T15:23:12;6.70;99.90
18611;DHT22;9435;52.122;5.502;2023-01-15T15:25:41;6.60;99.90
18611;DHT22;9435;52.122;5.502;2023-01-15T15:28:09;6.60;99.90
18611;DHT22;9435;52.122;5.502;2023-01-15T15:30:42;6.50;99.90
18611;DHT22;9435;52.122;5.502;2023-01-15T15:33:15;6.30;99.90
18611;DHT22;9435;52.122;5.502;2023-01-15T15:35:45;6.20;99.90
18611;DHT22;9435;52.122;5.502;2023-01-15T15:38:16;6.20;99.90
18611;DHT22;9435;52.122;5.502;2023-01-15T15:40:46;6.20;99.90
18611;DHT22;9435;52.122;5.502;2023-01-15T15:43:19;6.30;99.90
18611;DHT22;9435;52.122;5.502;2023-01-15T15:46:21;6.30;99.90
18611;DHT22;9435;52.122;5.502;2023-01-15T15:49:06;6.30;99.90
18611;DHT22;9435;52.122;5.502;2023-01-15T15:51:36;6.30;99.90
18611;DHT22;9435;52.122;5.502;2023-01-15T15:54:14;6.30;99.90
18611;DHT22;9435;52.122;5.502;2023-01-15T15:56:47;6.30;99.90
18611;DHT22;9435;52.122;5.502;2023-01-15T15:59:19;6.30;99.90
18611;DHT22;9435;52.122;5.502;2023-01-15T16:01:48;6.30;99.90
18611;DHT22;9435;52.122;5.502;2023-01-15T16:04:16;6.30;99.90
18611;DHT22;9435;52.122;5.502;2023-01-15T16:06:44;6.30;99.90
18611;DHT22;9435;52.122;5.502;2023-01-15T16:09:13;6.20;99.90
18611;DHT22;9435;52.122;5.502;2023-01-15T16:11:40;6.20;99.90
18611;DHT22;9435;52.122;5.502;2023-01-15T16:14:10;6.20;99.90
18611;DHT22;9435;52.122;5.502;2023-01-15T16:16:41;6.10;99.90
18611;DHT22;9435;52.122;5.502;2023-01-15T16:19:13;6.00;99.90
18611;DHT22;9435;52.122;5.502;2023-01-15T16:21:43;5.90;99.90
18611;DHT22;9435;52.122;5.502;2023-01-15T16:24:22;5.90;99.90
18611;DHT22;9435;52.122;5.502;2023-01-15T16:26:56;5.90;99.90
18611;DHT22;9435;52.122;5.502;2023-01-15T16:29:28;5.90;99.90
18611;DHT22;9435;52.122;5.502;2023-01-15T16:31:56;5.80;99.90
18611;DHT22;9435;52.122;5.502;2023-01-15T16:34:29;5.90;99.90
18611;DHT22;9435;52.122;5.502;2023-01-15T16:36:58;5.90;99.90
18611;DHT22;9435;52.122;5.502;2023-01-15T16:39:35;5.90;99.90
18611;DHT22;9435;52.122;5.502;2023-01-15T16:42:23;6.00;99.90
18611;DHT22;9435;52.122;5.502;2023-01-15T16:44:53;6.00;99.90
18611;DHT22;9435;52.122;5.502;2023-01-15T16:47:22;6.00;99.90